sensor_id;sensor_type;location;lat;lon;timestamp;temperature;humidity
7784;DHT22;19359;51.402;6.778;2024-03-08T00:01:33;4.00;1.00
7784;DHT22;19359;51.402;6.778;2024-03-08T00:04:00;3.90;1.00
7784;DHT22;19359;51.402;6.778;2024-03-08T00:06:27;3.90;1.00
7784;DHT22;19359;51.402;6.778;2024-03-08T00:08:53;3.90;1.00
7784;DHT22;19359;51.402;6.778;2024-03-08T00:11:21;3.90;1.00
7784;DHT22;19359;51.402;6.778;2024-03-08T00:13:52;3.90;1.00
7784;DHT22;19359;51.402;6.778;2024-03-08T00:16:19;3.80;1.00
7784;DHT22;19359;51.402;6.778;2024-03-08T00:18:46;3.80;1.00
7784;DHT22;19359;51.402;6.778;2024-03-08T00:21:14;3.70;1.00
7784;DHT22;19359;51.402;6.778;2024-03-08T00:23:41;3.70;1.00
7784;DHT22;19359;51.402;6.778;2024-03-08T00:26:08;3.60;1.00
7784;DHT22;19359;51.402;6.778;2024-03-08T00:28:35;3.60;1.00
7784;DHT22;19359;51.402;6.778;2024-03-08T00:31:03;3.60;1.00
7784;DHT22;19359;51.402;6.778;2024-03-08T00:33:30;3.50;1.00
7784;DHT22;19359;51.402;6.778;2024-03-08T00:35:56;3.60;1.00
7784;DHT22;19359;51.402;6.778;2024-03-08T00:38:23;3.60;1.00
7784;DHT22;19359;51.402;6.778;2024-03-08T00:40:50;3.50;1.00
7784;DHT22;19359;51.402;6.778;2024-03-08T00:43:17;3.60;1.00
7784;DHT22;19359;51.402;6.778;2024-03-08T00:45:43;3.60;1.00
7784;DHT22;19359;51.402;6.778;2024-03-08T00:48:11;3.50;1.00
7784;DHT22;19359;51.402;6.778;2024-03-08T00:50:38;3.50;1.00
7784;DHT22;19359;51.402;6.778;2024-03-08T00:53:05;3.50;1.00
7784;DHT22;19359;51.402;6.778;2024-03-08T00:55:32;3.60;1.00
7784;DHT22;19359;51.402;6.778;2024-03-08T00:58:00;3.50;1.00
7784;DHT22;19359;51.402;6.778;2024-03-08T01:00:27;3.50;1.00
7784;DHT22;19359;51.402;6.778;2024-03-08T01:02:54;3.30;1.00
7784;DHT22;19359;51.402;6.778;2024-03-08T01:05:22;3.30;1.00
7784;DHT22;19359;51.402;6.778;2024-03-08T01:07:50;3.20;1.00
7784;DHT22;19359;51.402;6.778;2024-03-08T01:10:17;3.20;1.00
7784;DHT22;19359;51.402;6.778;2024-03-08T01:12:43;3.10;1.00
7784;DHT22;19359;51.402;6.778;2024-03-08T01:15:10;3.10;1.00
7784;DHT22;19359;51.402;6.778;2024-03-08T01:17:37;3.00;1.00
7784;DHT22;19359;51.402;6.778;2024-03-08T01:20:05;3.00;1.00
7784;DHT22;19359;51.402;6.778;2024-03-08T01:22:33;2.90;1.00
7784;DHT22;19359;51.402;6.778;2024-03-08T01:25:00;2.90;1.00
7784;DHT22;19359;51.402;6.778;2024-03-08T01:27:27;2.90;1.00
7784;DHT22;19359;51.402;6.778;2024-03-08T01:29:54;2.90;1.00
7784;DHT22;19359;51.402;6.778;2024-03-08T01:32:20;2.90;1.00
7784;DHT22;19359;51.402;6.778;2024-03-08T01:34:48;2.70;1.00
7784;DHT22;19359;51.402;6.778;2024-03-08T01:37:15;2.70;1.00
7784;DHT22;19359;51.402;6.778;2024-03-08T01:39:43;2.60;1.00
7784;DHT22;19359;51.402;6.778;2024-03-08T01:42:10;2.50;1.00
7784;DHT22;19359;51.402;6.778;2024-03-08T01:44:38;2.40;1.00
7784;DHT22;19359;51.402;6.778;2024-03-08T01:47:06;2.30;1.00
7784;DHT22;19359;51.402;6.778;2024-03-08T01:49:33;2.30;1.00
7784;DHT22;19359;51.402;6.778;2024-03-08T01:52:00;2.40;1.00
7784;DHT22;19359;51.402;6.778;2024-03-08T01:54:27;2.30;1.00
7784;DHT22;19359;51.402;6.778;2024-03-08T01:56:57;2.30;1.00
7784;DHT22;19359;51.402;6.778;2024-03-08T01:59:25;2.30;1.00
7784;DHT22;19359;51.402;6.778;2024-03-08T02:01:53;2.20;1.00
7784;DHT22;19359;51.402;6.778;2024-03-08T02:04:20;2.20;1.00
7784;DHT22;19359;51.402;6.778;2024-03-08T02:06:47;2.10;1.00
7784;DHT22;19359;51.402;6.778;2024-03-08T02:09:14;2.10;1.00
7784;DHT22;19359;51.402;6.778;2024-03-08T02:11:42;2.10;1.00
7784;DHT22;19359;51.402;6.778;2024-03-08T02:14:10;2.10;1.00
7784;DHT22;19359;51.402;6.778;2024-03-08T02:16:38;2.20;1.00
7784;DHT22;19359;51.402;6.778;2024-03-08T02:19:04;2.10;1.00
7784;DHT22;19359;51.402;6.778;2024-03-08T02:21:36;2.00;1.00
7784;DHT22;19359;51.402;6.778;2024-03-08T02:24:04;2.10;1.00
7784;DHT22;19359;51.402;6.778;2024-03-08T02:26:31;2.10;1.00
7784;DHT22;19359;51.402;6.778;2024-03-08T02:28:58;2.10;1.00
7784;DHT22;19359;51.402;6.778;2024-03-08T02:31:24;2.10;1.00
7784;DHT22;19359;51.402;6.778;2024-03-08T02:33:51;2.20;1.00
7784;DHT22;19359;51.402;6.778;2024-03-08T02:36:18;2.10;1.00
7784;DHT22;19359;51.402;6.778;2024-03-08T02:38:46;2.20;1.00
7784;DHT22;19359;51.402;6.778;2024-03-08T02:41:13;2.10;1.00
7784;DHT22;19359;51.402;6.778;2024-03-08T02:43:39;2.00;1.00
7784;DHT22;19359;51.402;6.778;2024-03-08T02:46:06;1.90;1.00
7784;DHT22;19359;51.402;6.778;2024-03-08T02:48:33;1.80;1.00
7784;DHT22;19359;51.402;6.778;2024-03-08T02:51:00;1.70;1.00
7784;DHT22;19359;51.402;6.778;2024-03-08T02:53:27;1.70;1.00
7784;DHT22;19359;51.402;6.778;2024-03-08T02:55:55;1.70;1.00
7784;DHT22;19359;51.402;6.778;2024-03-08T02:58:22;1.60;1.00
7784;DHT22;19359;51.402;6.778;2024-03-08T03:00:49;1.50;1.00
7784;DHT22;19359;51.402;6.778;2024-03-08T03:03:16;1.50;1.00
7784;DHT22;19359;51.402;6.778;2024-03-08T03:05:43;1.50;1.00
7784;DHT22;19359;51.402;6.778;2024-03-08T03:08:09;1.40;1.00
7784;DHT22;19359;51.402;6.778;2024-03-08T03:10:37;1.40;1.00
7784;DHT22;19359;51.402;6.778;2024-03-08T03:13:05;1.40;1.00
7784;DHT22;19359;51.402;6.778;2024-03-08T03:15:32;1.40;1.00
7784;DHT22;19359;51.402;6.778;2024-03-08T03:18:00;1.40;1.00
7784;DHT22;19359;51.402;6.778;2024-03-08T03:20:27;1.30;1.00
7784;DHT22;19359;51.402;6.778;2024-03-08T03:22:58;1.30;1.00
7784;DHT22;19359;51.402;6.778;2024-03-08T03:25:27;1.30;1.00
7784;DHT22;19359;51.402;6.778;2024-03-08T03:27:59;1.20;1.00
7784;DHT22;19359;51.402;6.778;2024-03-08T03:30:28;1.20;1.00
7784;DHT22;19359;51.402;6.778;2024-03-08T03:32:59;1.20;1.00
7784;DHT22;19359;51.402;6.778;2024-03-08T03:35:27;1.20;1.00
7784;DHT22;19359;51.402;6.778;2024-03-08T03:37:54;1.20;1.00
7784;DHT22;19359;51.402;6.778;2024-03-08T03:40:31;1.40;1.00
7784;DHT22;19359;51.402;6.778;2024-03-08T03:42:58;1.30;1.00
7784;DHT22;19359;51.402;6.778;2024-03-08T03:45:25;1.30;1.00
7784;DHT22;19359;51.402;6.778;2024-03-08T03:47:53;1.20;1.00
7784;DHT22;19359;51.402;6.778;2024-03-08T03:50:20;1.20;1.00
7784;DHT22;19359;51.402;6.778;2024-03-08T03:52:47;1.10;1.00
7784;DHT22;19359;51.402;6.778;2024-03-08T03:57:42;1.20;1.00
7784;DHT22;19359;51.402;6.778;2024-03-08T04:00:11;1.30;1.00
7784;DHT22;19359;51.402;6.778;2024-03-08T04:02:38;1.40;1.00
7784;DHT22;19359;51.402;6.778;2024-03-08T04:05:09;1.30;1.00
7784;DHT22;19359;51.402;6.778;2024-03-08T04:07:36;1.30;1.00
7784;DHT22;19359;51.402;6.778;2024-03-08T04:10:05;1.20;1.00
7784;DHT22;19359;51.402;6.778;2024-03-08T04:12:32;1.20;1.00
7784;DHT22;19359;51.402;6.778;2024-03-08T04:14:59;1.20;1.00
7784;DHT22;19359;51.402;6.778;2024-03-08T04:17:26;1.10;1.00
7784;DHT22;19359;51.402;6.778;2024-03-08T04:19:53;1.00;1.00
7784;DHT22;19359;51.402;6.778;2024-03-08T04:22:21;1.00;1.00
7784;DHT22;19359;51.402;6.778;2024-03-08T04:24:48;1.00;1.00
7784;DHT22;19359;51.402;6.778;2024-03-08T04:27:15;1.00;1.00
7784;DHT22;19359;51.402;6.778;2024-03-08T04:29:41;0.90;1.00
7784;DHT22;19359;51.402;6.778;2024-03-08T04:32:10;1.00;1.00
7784;DHT22;19359;51.402;6.778;2024-03-08T04:34:39;0.90;1.00
7784;DHT22;19359;51.402;6.778;2024-03-08T04:37:05;1.00;1.00
7784;DHT22;19359;51.402;6.778;2024-03-08T04:39:33;1.00;1.00
7784;DHT22;19359;51.402;6.778;2024-03-08T04:42:02;1.10;1.00
7784;DHT22;19359;51.402;6.778;2024-03-08T04:44:30;1.10;1.00
7784;DHT22;19359;51.402;6.778;2024-03-08T04:46:57;1.10;1.00
7784;DHT22;19359;51.402;6.778;2024-03-08T04:49:23;1.10;1.00
7784;DHT22;19359;51.402;6.778;2024-03-08T04:51:50;1.10;1.00
7784;DHT22;19359;51.402;6.778;2024-03-08T04:54:17;1.00;1.00
7784;DHT22;19359;51.402;6.778;2024-03-08T04:56:45;1.10;1.00
7784;DHT22;19359;51.402;6.778;2024-03-08T04:59:12;1.10;1.00
7784;DHT22;19359;51.402;6.778;2024-03-08T05:01:39;1.10;1.00
7784;DHT22;19359;51.402;6.778;2024-03-08T05:04:06;1.10;1.00
7784;DHT22;19359;51.402;6.778;2024-03-08T05:11:31;1.00;1.00
7784;DHT22;19359;51.402;6.778;2024-03-08T05:14:00;1.10;1.00
7784;DHT22;19359;51.402;6.778;2024-03-08T05:16:26;1.10;1.00
7784;DHT22;19359;51.402;6.778;2024-03-08T05:18:53;1.20;1.00
7784;DHT22;19359;51.402;6.778;2024-03-08T05:21:20;1.10;1.00
7784;DHT22;19359;51.402;6.778;2024-03-08T05:23:47;1.10;1.00
7784;DHT22;19359;51.402;6.778;2024-03-08T05:26:15;1.10;1.00
7784;DHT22;19359;51.402;6.778;2024-03-08T05:28:42;0.90;1.00
7784;DHT22;19359;51.402;6.778;2024-03-08T05:31:10;0.80;1.00
7784;DHT22;19359;51.402;6.778;2024-03-08T05:33:37;0.70;1.00
7784;DHT22;19359;51.402;6.778;2024-03-08T05:36:04;0.50;1.00
7784;DHT22;19359;51.402;6.778;2024-03-08T05:38:31;0.50;1.00
7784;DHT22;19359;51.402;6.778;2024-03-08T05:40:59;0.40;1.00
7784;DHT22;19359;51.402;6.778;2024-03-08T05:43:26;0.40;1.00
7784;DHT22;19359;51.402;6.778;2024-03-08T05:45:53;0.40;1.00
7784;DHT22;19359;51.402;6.778;2024-03-08T05:48:21;0.40;1.00
7784;DHT22;19359;51.402;6.778;2024-03-08T05:50:48;0.50;1.00
7784;DHT22;19359;51.402;6.778;2024-03-08T05:53:15;0.60;1.00
7784;DHT22;19359;51.402;6.778;2024-03-08T05:55:42;0.60;1.00
7784;DHT22;19359;51.402;6.778;2024-03-08T05:58:09;0.60;1.00
7784;DHT22;19359;51.402;6.778;2024-03-08T06:00:37;0.50;1.00
7784;DHT22;19359;51.402;6.778;2024-03-08T06:03:03;0.60;1.00
7784;DHT22;19359;51.402;6.778;2024-03-08T06:05:31;0.60;1.00
7784;DHT22;19359;51.402;6.778;2024-03-08T06:07:59;0.50;1.00
7784;DHT22;19359;51.402;6.778;2024-03-08T06:10:26;0.50;1.00
7784;DHT22;19359;51.402;6.778;2024-03-08T06:12:52;0.60;1.00
7784;DHT22;19359;51.402;6.778;2024-03-08T06:15:20;0.70;1.00
7784;DHT22;19359;51.402;6.778;2024-03-08T06:17:47;0.70;1.00
7784;DHT22;19359;51.402;6.778;2024-03-08T06:20:13;0.60;1.00
7784;DHT22;19359;51.402;6.778;2024-03-08T06:22:42;0.70;1.00
7784;DHT22;19359;51.402;6.778;2024-03-08T06:25:10;0.80;1.00
7784;DHT22;19359;51.402;6.778;2024-03-08T06:27:39;0.90;1.00
7784;DHT22;19359;51.402;6.778;2024-03-08T06:30:06;0.90;1.00
7784;DHT22;19359;51.402;6.778;2024-03-08T06:32:34;0.90;1.00
7784;DHT22;19359;51.402;6.778;2024-03-08T06:35:01;1.00;1.00
7784;DHT22;19359;51.402;6.778;2024-03-08T06:37:31;1.00;1.00
7784;DHT22;19359;51.402;6.778;2024-03-08T06:39:59;1.20;1.00
7784;DHT22;19359;51.402;6.778;2024-03-08T06:42:26;1.20;1.00
7784;DHT22;19359;51.402;6.778;2024-03-08T06:44:53;1.20;1.00
7784;DHT22;19359;51.402;6.778;2024-03-08T06:47:21;1.20;1.00
7784;DHT22;19359;51.402;6.778;2024-03-08T06:49:51;1.20;1.00
7784;DHT22;19359;51.402;6.778;2024-03-08T06:52:17;1.40;1.00
7784;DHT22;19359;51.402;6.778;2024-03-08T06:54:44;1.30;1.00
7784;DHT22;19359;51.402;6.778;2024-03-08T06:57:12;1.50;1.00
7784;DHT22;19359;51.402;6.778;2024-03-08T06:59:39;1.50;1.00
7784;DHT22;19359;51.402;6.778;2024-03-08T07:02:06;1.50;1.00
7784;DHT22;19359;51.402;6.778;2024-03-08T07:04:34;1.50;1.00
7784;DHT22;19359;51.402;6.778;2024-03-08T07:07:05;1.60;1.00
7784;DHT22;19359;51.402;6.778;2024-03-08T07:09:35;1.70;1.00
7784;DHT22;19359;51.402;6.778;2024-03-08T07:12:01;1.70;1.00
7784;DHT22;19359;51.402;6.778;2024-03-08T07:14:30;1.70;1.00
7784;DHT22;19359;51.402;6.778;2024-03-08T07:16:57;1.80;1.00
7784;DHT22;19359;51.402;6.778;2024-03-08T07:19:24;1.80;1.00
7784;DHT22;19359;51.402;6.778;2024-03-08T07:21:50;1.90;1.00
7784;DHT22;19359;51.402;6.778;2024-03-08T07:24:17;2.00;1.00
7784;DHT22;19359;51.402;6.778;2024-03-08T07:27:04;2.10;1.00
7784;DHT22;19359;51.402;6.778;2024-03-08T07:29:33;2.20;1.00
7784;DHT22;19359;51.402;6.778;2024-03-08T07:31:59;2.20;1.00
7784;DHT22;19359;51.402;6.778;2024-03-08T07:34:38;2.30;1.00
7784;DHT22;19359;51.402;6.778;2024-03-08T07:37:05;2.40;1.00
7784;DHT22;19359;51.402;6.778;2024-03-08T07:39:37;2.40;1.00
7784;DHT22;19359;51.402;6.778;2024-03-08T07:42:04;2.50;1.00
7784;DHT22;19359;51.402;6.778;2024-03-08T07:44:30;2.70;1.00
7784;DHT22;19359;51.402;6.778;2024-03-08T07:46:59;2.70;1.00
7784;DHT22;19359;51.402;6.778;2024-03-08T07:49:25;2.90;1.00
7784;DHT22;19359;51.402;6.778;2024-03-08T07:51:52;3.00;1.00
7784;DHT22;19359;51.402;6.778;2024-03-08T07:54:18;3.00;1.00
7784;DHT22;19359;51.402;6.778;2024-03-08T07:56:45;3.10;1.00
7784;DHT22;19359;51.402;6.778;2024-03-08T07:59:12;3.20;1.00
7784;DHT22;19359;51.402;6.778;2024-03-08T08:01:39;3.20;1.00
7784;DHT22;19359;51.402;6.778;2024-03-08T08:04:07;3.30;1.00
7784;DHT22;19359;51.402;6.778;2024-03-08T08:06:37;3.60;1.00
7784;DHT22;19359;51.402;6.778;2024-03-08T08:09:06;3.60;1.00
7784;DHT22;19359;51.402;6.778;2024-03-08T08:11:35;3.80;1.00
7784;DHT22;19359;51.402;6.778;2024-03-08T08:14:02;3.90;1.00
7784;DHT22;19359;51.402;6.778;2024-03-08T08:16:28;4.00;1.00
7784;DHT22;19359;51.402;6.778;2024-03-08T08:18:55;4.10;1.00
7784;DHT22;19359;51.402;6.778;2024-03-08T08:21:23;4.30;1.00
7784;DHT22;19359;51.402;6.778;2024-03-08T08:23:51;4.30;1.00
7784;DHT22;19359;51.402;6.778;2024-03-08T08:26:18;4.60;1.00
7784;DHT22;19359;51.402;6.778;2024-03-08T08:28:46;4.80;1.00
7784;DHT22;19359;51.402;6.778;2024-03-08T08:31:13;5.00;1.00
7784;DHT22;19359;51.402;6.778;2024-03-08T08:33:40;5.10;1.00
7784;DHT22;19359;51.402;6.778;2024-03-08T08:36:07;5.10;1.00
7784;DHT22;19359;51.402;6.778;2024-03-08T08:38:36;5.40;1.00
7784;DHT22;19359;51.402;6.778;2024-03-08T08:41:04;5.60;1.00
7784;DHT22;19359;51.402;6.778;2024-03-08T08:43:31;5.70;1.00
7784;DHT22;19359;51.402;6.778;2024-03-08T08:45:58;5.90;1.00
7784;DHT22;19359;51.402;6.778;2024-03-08T08:48:26;5.90;1.00
7784;DHT22;19359;51.402;6.778;2024-03-08T08:50:54;6.00;1.00
7784;DHT22;19359;51.402;6.778;2024-03-08T08:53:21;6.10;1.00
7784;DHT22;19359;51.402;6.778;2024-03-08T08:55:49;6.20;1.00
7784;DHT22;19359;51.402;6.778;2024-03-08T08:58:16;6.20;1.00
7784;DHT22;19359;51.402;6.778;2024-03-08T09:00:43;6.30;1.00
7784;DHT22;19359;51.402;6.778;2024-03-08T09:03:10;6.30;1.00
7784;DHT22;19359;51.402;6.778;2024-03-08T09:05:37;6.40;1.00
7784;DHT22;19359;51.402;6.778;2024-03-08T09:08:05;6.40;1.00
7784;DHT22;19359;51.402;6.778;2024-03-08T09:10:31;6.50;1.00
7784;DHT22;19359;51.402;6.778;2024-03-08T09:13:00;6.60;1.00
7784;DHT22;19359;51.402;6.778;2024-03-08T09:15:29;6.60;1.00
7784;DHT22;19359;51.402;6.778;2024-03-08T09:17:56;6.60;1.00
7784;DHT22;19359;51.402;6.778;2024-03-08T09:20:24;6.70;1.00
7784;DHT22;19359;51.402;6.778;2024-03-08T09:22:51;6.70;1.00
7784;DHT22;19359;51.402;6.778;2024-03-08T09:25:18;6.80;1.00
7784;DHT22;19359;51.402;6.778;2024-03-08T09:27:45;6.80;1.00
7784;DHT22;19359;51.402;6.778;2024-03-08T09:30:13;7.00;1.00
7784;DHT22;19359;51.402;6.778;2024-03-08T09:32:41;7.00;1.00
7784;DHT22;19359;51.402;6.778;2024-03-08T09:35:09;7.10;1.00
7784;DHT22;19359;51.402;6.778;2024-03-08T09:37:36;7.10;1.00
7784;DHT22;19359;51.402;6.778;2024-03-08T09:40:04;7.10;1.00
7784;DHT22;19359;51.402;6.778;2024-03-08T09:42:34;7.10;1.00
7784;DHT22;19359;51.402;6.778;2024-03-08T09:45:04;7.10;1.00
7784;DHT22;19359;51.402;6.778;2024-03-08T09:47:38;7.10;1.00
7784;DHT22;19359;51.402;6.778;2024-03-08T09:50:07;7.20;1.00
7784;DHT22;19359;51.402;6.778;2024-03-08T09:52:35;7.50;1.00
7784;DHT22;19359;51.402;6.778;2024-03-08T09:55:04;7.60;1.00
7784;DHT22;19359;51.402;6.778;2024-03-08T09:57:32;7.60;1.00
7784;DHT22;19359;51.402;6.778;2024-03-08T09:59:59;7.70;1.00
7784;DHT22;19359;51.402;6.778;2024-03-08T10:02:25;7.70;1.00
7784;DHT22;19359;51.402;6.778;2024-03-08T10:04:53;7.70;1.00
7784;DHT22;19359;51.402;6.778;2024-03-08T10:07:20;7.70;1.00
7784;DHT22;19359;51.402;6.778;2024-03-08T10:09:47;7.70;1.00
7784;DHT22;19359;51.402;6.778;2024-03-08T10:12:16;7.70;1.00
7784;DHT22;19359;51.402;6.778;2024-03-08T10:14:45;7.70;1.00
7784;DHT22;19359;51.402;6.778;2024-03-08T10:17:11;7.80;1.00
7784;DHT22;19359;51.402;6.778;2024-03-08T10:19:39;7.80;1.00
7784;DHT22;19359;51.402;6.778;2024-03-08T10:22:16;7.90;1.00
7784;DHT22;19359;51.402;6.778;2024-03-08T10:24:45;7.90;1.00
7784;DHT22;19359;51.402;6.778;2024-03-08T10:27:12;8.00;1.00
7784;DHT22;19359;51.402;6.778;2024-03-08T10:29:39;8.00;1.00
7784;DHT22;19359;51.402;6.778;2024-03-08T10:32:09;8.00;1.00
7784;DHT22;19359;51.402;6.778;2024-03-08T10:34:37;8.10;1.00
7784;DHT22;19359;51.402;6.778;2024-03-08T10:37:05;8.20;1.00
7784;DHT22;19359;51.402;6.778;2024-03-08T10:39:35;8.20;1.00
7784;DHT22;19359;51.402;6.778;2024-03-08T10:42:04;8.30;1.00
7784;DHT22;19359;51.402;6.778;2024-03-08T10:44:46;8.30;1.00
7784;DHT22;19359;51.402;6.778;2024-03-08T10:47:18;8.30;1.00
7784;DHT22;19359;51.402;6.778;2024-03-08T10:50:03;8.40;1.00
7784;DHT22;19359;51.402;6.778;2024-03-08T10:52:34;8.50;1.00
7784;DHT22;19359;51.402;6.778;2024-03-08T10:55:04;8.80;1.00
7784;DHT22;19359;51.402;6.778;2024-03-08T10:57:38;8.90;1.00
7784;DHT22;19359;51.402;6.778;2024-03-08T11:00:07;9.00;1.00
7784;DHT22;19359;51.402;6.778;2024-03-08T11:02:35;9.40;1.00
7784;DHT22;19359;51.402;6.778;2024-03-08T11:05:03;9.40;1.00
7784;DHT22;19359;51.402;6.778;2024-03-08T11:07:33;9.40;1.00
7784;DHT22;19359;51.402;6.778;2024-03-08T11:10:04;9.40;1.00
7784;DHT22;19359;51.402;6.778;2024-03-08T11:12:36;9.40;1.00
7784;DHT22;19359;51.402;6.778;2024-03-08T11:15:10;9.60;1.00
7784;DHT22;19359;51.402;6.778;2024-03-08T11:17:45;9.70;1.00
7784;DHT22;19359;51.402;6.778;2024-03-08T11:20:12;9.70;1.00
7784;DHT22;19359;51.402;6.778;2024-03-08T11:22:42;9.60;1.00
7784;DHT22;19359;51.402;6.778;2024-03-08T11:25:33;9.60;1.00
7784;DHT22;19359;51.402;6.778;2024-03-08T11:28:13;9.80;1.00
7784;DHT22;19359;51.402;6.778;2024-03-08T11:30:46;9.80;1.00
7784;DHT22;19359;51.402;6.778;2024-03-08T11:33:14;10.00;1.00
7784;DHT22;19359;51.402;6.778;2024-03-08T11:35:42;10.10;1.00
7784;DHT22;19359;51.402;6.778;2024-03-08T11:38:11;10.20;1.00
7784;DHT22;19359;51.402;6.778;2024-03-08T11:40:40;10.20;1.00
7784;DHT22;19359;51.402;6.778;2024-03-08T11:43:08;10.20;1.00
7784;DHT22;19359;51.402;6.778;2024-03-08T11:45:34;10.30;1.00
7784;DHT22;19359;51.402;6.778;2024-03-08T11:48:03;10.30;1.00
7784;DHT22;19359;51.402;6.778;2024-03-08T11:50:30;10.30;1.00
7784;DHT22;19359;51.402;6.778;2024-03-08T11:53:02;10.30;1.00
7784;DHT22;19359;51.402;6.778;2024-03-08T11:55:29;10.30;1.00
7784;DHT22;19359;51.402;6.778;2024-03-08T11:58:02;10.30;1.00
7784;DHT22;19359;51.402;6.778;2024-03-08T12:00:30;10.40;1.00
7784;DHT22;19359;51.402;6.778;2024-03-08T12:03:08;10.50;1.00
7784;DHT22;19359;51.402;6.778;2024-03-08T12:05:36;10.50;1.00
7784;DHT22;19359;51.402;6.778;2024-03-08T12:08:04;10.70;1.00
7784;DHT22;19359;51.402;6.778;2024-03-08T12:10:33;10.90;1.00
7784;DHT22;19359;51.402;6.778;2024-03-08T12:13:01;10.90;1.00
7784;DHT22;19359;51.402;6.778;2024-03-08T12:15:29;10.90;1.00
7784;DHT22;19359;51.402;6.778;2024-03-08T12:17:58;10.90;1.00
7784;DHT22;19359;51.402;6.778;2024-03-08T12:20:26;10.90;1.00
7784;DHT22;19359;51.402;6.778;2024-03-08T12:22:55;11.00;1.00
7784;DHT22;19359;51.402;6.778;2024-03-08T12:25:25;11.10;1.00
7784;DHT22;19359;51.402;6.778;2024-03-08T12:27:52;11.10;1.00
7784;DHT22;19359;51.402;6.778;2024-03-08T12:30:24;11.20;1.00
7784;DHT22;19359;51.402;6.778;2024-03-08T12:32:53;11.20;1.00
7784;DHT22;19359;51.402;6.778;2024-03-08T12:35:22;11.20;1.00
7784;DHT22;19359;51.402;6.778;2024-03-08T12:37:50;11.20;1.00
7784;DHT22;19359;51.402;6.778;2024-03-08T12:40:18;11.20;1.00
7784;DHT22;19359;51.402;6.778;2024-03-08T12:42:46;11.30;1.00
7784;DHT22;19359;51.402;6.778;2024-03-08T12:45:14;11.40;1.00
7784;DHT22;19359;51.402;6.778;2024-03-08T12:47:42;11.40;1.00
7784;DHT22;19359;51.402;6.778;2024-03-08T12:50:10;11.60;1.00
7784;DHT22;19359;51.402;6.778;2024-03-08T12:52:36;11.70;1.00
7784;DHT22;19359;51.402;6.778;2024-03-08T12:55:04;11.70;1.00
7784;DHT22;19359;51.402;6.778;2024-03-08T12:57:32;12.20;1.00
7784;DHT22;19359;51.402;6.778;2024-03-08T13:00:00;12.70;1.00
7784;DHT22;19359;51.402;6.778;2024-03-08T13:02:28;13.40;1.00
7784;DHT22;19359;51.402;6.778;2024-03-08T13:04:57;13.90;1.00
7784;DHT22;19359;51.402;6.778;2024-03-08T13:07:24;14.40;1.00
7784;DHT22;19359;51.402;6.778;2024-03-08T13:09:52;14.90;1.00
7784;DHT22;19359;51.402;6.778;2024-03-08T13:12:19;15.40;1.00
7784;DHT22;19359;51.402;6.778;2024-03-08T13:14:46;15.30;1.00
7784;DHT22;19359;51.402;6.778;2024-03-08T13:17:13;15.10;1.00
7784;DHT22;19359;51.402;6.778;2024-03-08T13:19:40;15.00;1.00
7784;DHT22;19359;51.402;6.778;2024-03-08T13:22:09;15.10;1.00
7784;DHT22;19359;51.402;6.778;2024-03-08T13:24:38;16.00;1.00
7784;DHT22;19359;51.402;6.778;2024-03-08T13:27:06;16.50;1.00
7784;DHT22;19359;51.402;6.778;2024-03-08T13:29:45;17.80;1.00
7784;DHT22;19359;51.402;6.778;2024-03-08T13:32:12;17.70;1.00
7784;DHT22;19359;51.402;6.778;2024-03-08T13:34:41;17.30;1.00
7784;DHT22;19359;51.402;6.778;2024-03-08T13:37:09;17.50;1.00
7784;DHT22;19359;51.402;6.778;2024-03-08T13:39:37;17.70;1.00
7784;DHT22;19359;51.402;6.778;2024-03-08T13:42:09;17.80;1.00
7784;DHT22;19359;51.402;6.778;2024-03-08T13:44:39;17.20;1.00
7784;DHT22;19359;51.402;6.778;2024-03-08T13:47:06;17.20;1.00
7784;DHT22;19359;51.402;6.778;2024-03-08T13:49:32;17.60;1.00
7784;DHT22;19359;51.402;6.778;2024-03-08T13:51:59;17.40;1.00
7784;DHT22;19359;51.402;6.778;2024-03-08T13:54:28;17.40;1.00
7784;DHT22;19359;51.402;6.778;2024-03-08T13:56:57;17.10;1.00
7784;DHT22;19359;51.402;6.778;2024-03-08T13:59:23;17.20;1.00
7784;DHT22;19359;51.402;6.778;2024-03-08T14:01:55;17.20;1.00
7784;DHT22;19359;51.402;6.778;2024-03-08T14:04:21;17.60;1.00
7784;DHT22;19359;51.402;6.778;2024-03-08T14:06:49;17.70;1.00
7784;DHT22;19359;51.402;6.778;2024-03-08T14:09:17;17.30;1.00
7784;DHT22;19359;51.402;6.778;2024-03-08T14:11:45;17.30;1.00
7784;DHT22;19359;51.402;6.778;2024-03-08T14:14:12;17.60;1.00
7784;DHT22;19359;51.402;6.778;2024-03-08T14:16:39;16.90;1.00
7784;DHT22;19359;51.402;6.778;2024-03-08T14:19:06;16.80;1.00
7784;DHT22;19359;51.402;6.778;2024-03-08T14:21:35;17.00;1.00
7784;DHT22;19359;51.402;6.778;2024-03-08T14:24:05;17.00;1.00
7784;DHT22;19359;51.402;6.778;2024-03-08T14:26:32;18.00;1.00
7784;DHT22;19359;51.402;6.778;2024-03-08T14:29:00;19.10;1.00
7784;DHT22;19359;51.402;6.778;2024-03-08T14:31:27;19.60;1.00
7784;DHT22;19359;51.402;6.778;2024-03-08T14:33:55;18.80;1.00
7784;DHT22;19359;51.402;6.778;2024-03-08T14:36:24;18.80;1.00
7784;DHT22;19359;51.402;6.778;2024-03-08T14:38:52;19.10;1.00
7784;DHT22;19359;51.402;6.778;2024-03-08T14:41:19;19.20;1.00
7784;DHT22;19359;51.402;6.778;2024-03-08T14:43:45;19.30;1.00
7784;DHT22;19359;51.402;6.778;2024-03-08T14:46:14;19.10;1.00
7784;DHT22;19359;51.402;6.778;2024-03-08T14:48:43;18.90;1.00
7784;DHT22;19359;51.402;6.778;2024-03-08T14:51:09;18.70;1.00
7784;DHT22;19359;51.402;6.778;2024-03-08T14:53:40;19.00;1.00
7784;DHT22;19359;51.402;6.778;2024-03-08T14:56:07;19.30;1.00
7784;DHT22;19359;51.402;6.778;2024-03-08T14:58:34;19.40;1.00
7784;DHT22;19359;51.402;6.778;2024-03-08T15:01:03;19.20;1.00
7784;DHT22;19359;51.402;6.778;2024-03-08T15:03:35;19.10;1.00
7784;DHT22;19359;51.402;6.778;2024-03-08T15:06:03;19.00;1.00
7784;DHT22;19359;51.402;6.778;2024-03-08T15:08:33;18.20;99.90
7784;DHT22;19359;51.402;6.778;2024-03-08T15:11:00;18.50;99.90
7784;DHT22;19359;51.402;6.778;2024-03-08T15:13:27;18.80;1.00
7784;DHT22;19359;51.402;6.778;2024-03-08T15:15:59;18.80;1.00
7784;DHT22;19359;51.402;6.778;2024-03-08T15:18:26;19.30;99.90
7784;DHT22;19359;51.402;6.778;2024-03-08T15:20:58;19.30;1.00
7784;DHT22;19359;51.402;6.778;2024-03-08T15:23:25;19.10;1.00
7784;DHT22;19359;51.402;6.778;2024-03-08T15:25:52;19.20;1.00
7784;DHT22;19359;51.402;6.778;2024-03-08T15:28:18;19.70;1.00
7784;DHT22;19359;51.402;6.778;2024-03-08T15:30:52;19.20;99.90
7784;DHT22;19359;51.402;6.778;2024-03-08T15:35:49;17.80;99.90
7784;DHT22;19359;51.402;6.778;2024-03-08T15:38:24;17.70;99.90
7784;DHT22;19359;51.402;6.778;2024-03-08T15:40:52;18.00;99.90
7784;DHT22;19359;51.402;6.778;2024-03-08T15:43:20;18.00;99.90
7784;DHT22;19359;51.402;6.778;2024-03-08T15:45:47;18.20;99.90
7784;DHT22;19359;51.402;6.778;2024-03-08T15:48:14;17.40;99.90
7784;DHT22;19359;51.402;6.778;2024-03-08T15:50:41;16.80;99.90
7784;DHT22;19359;51.402;6.778;2024-03-08T15:53:08;16.80;99.90
7784;DHT22;19359;51.402;6.778;2024-03-08T15:55:38;16.10;99.90
7784;DHT22;19359;51.402;6.778;2024-03-08T15:58:06;16.10;99.90
7784;DHT22;19359;51.402;6.778;2024-03-08T16:00:33;15.20;99.90
7784;DHT22;19359;51.402;6.778;2024-03-08T16:03:02;15.20;99.90
7784;DHT22;19359;51.402;6.778;2024-03-08T16:05:32;15.10;99.90
7784;DHT22;19359;51.402;6.778;2024-03-08T16:07:58;15.10;99.90
7784;DHT22;19359;51.402;6.778;2024-03-08T16:10:25;14.30;99.90
7784;DHT22;19359;51.402;6.778;2024-03-08T16:12:55;13.80;99.90
7784;DHT22;19359;51.402;6.778;2024-03-08T16:17:49;13.50;99.90
7784;DHT22;19359;51.402;6.778;2024-03-08T16:20:17;13.50;99.90
7784;DHT22;19359;51.402;6.778;2024-03-08T16:22:45;13.50;99.90
7784;DHT22;19359;51.402;6.778;2024-03-08T16:25:11;13.40;99.90
7784;DHT22;19359;51.402;6.778;2024-03-08T16:27:39;13.20;99.90
7784;DHT22;19359;51.402;6.778;2024-03-08T16:30:09;13.00;99.90